Time;durP1;ratioP1;P1;durP2;ratioP2;P2;SDS_P1;SDS_P2;PMS_P1;PMS_P2;Temp;Humidity;BMP_temperature;BMP_pressure;BME280_temperature;BME280_humidity;BME280_pressure;Samples;Min_cycle;Max_cycle;Signal;HPM_P1;HPM_P2
2022/01/07 00:00:57;;;;;;;16.08;4.68;;;3.60;99.90;;;;;;5108912;27;20035;-78
2022/01/07 00:03:23;;;;;;;8.00;3.60;;;3.60;99.90;;;;;;5127611;27;20058;-78
2022/01/07 00:05:49;;;;;;;10.55;3.80;;;5.70;99.90;;;;;;5108583;27;20039;-78
2022/01/07 00:08:15;;;;;;;13.88;4.10;;;3.60;99.90;;;;;;5126838;27;20053;-77
2022/01/07 00:10:41;;;;;;;9.32;3.97;;;3.50;99.90;;;;;;5124942;27;20035;-79
2022/01/07 00:13:06;;;;;;;13.02;3.65;;;3.10;99.90;;;;;;5122447;27;20591;-78
2022/01/07 00:15:32;;;;;;;9.50;4.07;;;3.50;99.90;;;;;;5122507;27;20088;-78
2022/01/07 00:17:58;;;;;;;12.25;3.97;;;3.50;99.90;;;;;;5144136;27;20359;-77
2022/01/07 00:20:24;;;;;;;13.88;4.80;;;3.50;99.90;;;;;;5109810;27;20466;-78
2022/01/07 00:22:50;;;;;;;13.73;5.03;;;3.50;99.90;;;;;;5106925;27;20042;-77
2022/01/07 00:25:16;;;;;;;8.80;4.30;;;3.50;99.90;;;;;;5105298;27;20050;-79
2022/01/07 00:27:42;;;;;;;15.10;4.20;;;3.40;99.90;;;;;;5123771;27;20103;-78
2022/01/07 00:30:10;;;;;;;10.73;4.20;;;3.40;99.90;;;;;;5144673;27;20039;-78
2022/01/07 00:32:36;;;;;;;13.85;4.60;;;3.40;99.90;;;;;;5124892;27;20057;-79
2022/01/07 00:35:03;;;;;;;15.20;5.22;;;3.30;99.90;;;;;;5141519;27;20118;-77
2022/01/07 00:37:29;;;;;;;14.70;4.55;;;3.30;99.90;;;;;;5117861;27;20118;-79
2022/01/07 00:39:54;;;;;;;11.18;4.20;;;3.30;99.90;;;;;;5129968;27;20127;-78
2022/01/07 00:42:20;;;;;;;14.52;4.60;;;3.20;99.90;;;;;;5122955;28;20043;-78
2022/01/07 00:44:45;;;;;;;10.63;4.97;;;3.20;99.90;;;;;;5124713;27;20047;-77
2022/01/07 00:47:11;;;;;;;11.20;4.90;;;3.20;99.90;;;;;;5123708;28;20484;-78
2022/01/07 00:49:37;;;;;;;11.40;4.38;;;3.10;99.90;;;;;;5117369;27;20260;-78
2022/01/07 00:52:03;;;;;;;18.15;5.93;;;3.10;99.90;;;;;;5148586;27;20039;-79
2022/01/07 00:54:29;;;;;;;12.80;4.35;;;3.10;99.90;;;;;;5122016;27;20042;-78
2022/01/07 00:56:55;;;;;;;18.83;4.82;;;4.70;99.90;;;;;;5121674;28;20039;-78
2022/01/07 00:59:21;;;;;;;10.90;4.03;;;3.00;99.90;;;;;;5097334;28;20046;-78
2022/01/07 01:01:47;;;;;;;14.02;4.32;;;3.00;99.90;;;;;;5109109;27;20054;-78
2022/01/07 01:04:13;;;;;;;18.13;4.97;;;3.00;99.90;;;;;;5100311;28;20050;-77
2022/01/07 01:06:41;;;;;;;15.40;4.53;;;3.00;99.90;;;;;;5121985;27;20483;-77
2022/01/07 01:09:10;;;;;;;14.52;4.85;;;3.00;99.90;;;;;;5103940;27;20043;-79
2022/01/07 01:11:37;;;;;;;15.73;5.57;;;3.00;99.90;;;;;;5110402;27;20133;-78
2022/01/07 01:14:04;;;;;;;17.42;5.00;;;3.00;99.90;;;;;;5125018;27;20039;-77
2022/01/07 01:16:30;;;;;;;9.55;3.90;;;3.00;99.90;;;;;;5109619;28;20039;-77
2022/01/07 01:18:56;;;;;;;15.25;4.93;;;2.90;99.90;;;;;;5140480;27;20067;-77
2022/01/07 01:21:22;;;;;;;18.17;5.88;;;2.80;99.90;;;;;;5100326;28;20124;-78
2022/01/07 01:23:49;;;;;;;15.48;5.22;;;2.80;99.90;;;;;;5118334;28;20088;-77
2022/01/07 01:26:18;;;;;;;15.88;4.60;;;2.80;99.90;;;;;;5125709;27;20117;-77
2022/01/07 01:28:44;;;;;;;23.63;6.38;;;2.70;99.90;;;;;;5105081;27;20035;-77
2022/01/07 01:31:10;;;;;;;14.63;4.85;;;2.80;99.90;;;;;;5129517;27;20043;-77
2022/01/07 01:33:35;;;;;;;9.57;3.78;;;2.70;99.90;;;;;;5112565;27;20095;-77
2022/01/07 01:36:01;;;;;;;13.43;4.47;;;2.70;99.90;;;;;;5125321;27;20506;-77
2022/01/07 01:38:30;;;;;;;14.40;4.10;;;2.80;99.90;;;;;;5109043;27;20111;-78
2022/01/07 01:40:56;;;;;;;13.85;5.15;;;3.30;99.90;;;;;;5128498;27;20105;-76
2022/01/07 01:43:22;;;;;;;11.80;5.13;;;2.80;99.90;;;;;;5128743;27;20035;-78
2022/01/07 01:45:47;;;;;;;8.73;5.05;;;2.10;99.90;;;;;;5110822;27;20405;-80
2022/01/07 01:48:13;;;;;;;10.73;4.47;;;2.70;99.90;;;;;;5125339;27;20043;-78
2022/01/07 01:50:39;;;;;;;14.02;5.13;;;2.70;99.90;;;;;;5108906;27;20043;-77
2022/01/07 01:53:04;;;;;;;15.68;5.32;;;2.70;99.90;;;;;;5129804;27;20102;-78
2022/01/07 01:55:30;;;;;;;11.00;4.65;;;2.70;99.90;;;;;;5124675;27;20126;-79
2022/01/07 01:57:57;;;;;;;13.48;5.28;;;2.70;99.90;;;;;;5124562;27;20066;-78
2022/01/07 02:00:24;;;;;;;11.55;5.47;;;3.70;99.90;;;;;;5131115;27;20070;-78
2022/01/07 02:02:50;;;;;;;9.90;5.60;;;2.60;99.90;;;;;;5128805;27;20095;-79
2022/01/07 02:05:16;;;;;;;13.80;5.57;;;2.60;99.90;;;;;;5129093;27;20035;-79
2022/01/07 02:07:42;;;;;;;15.27;5.53;;;2.50;99.90;;;;;;5106669;27;20442;-79
2022/01/07 02:10:14;;;;;;;14.57;5.10;;;2.60;99.90;;;;;;5107635;27;20047;-78
2022/01/07 02:12:41;;;;;;;15.48;5.45;;;2.60;99.90;;;;;;5103657;27;20043;-76
2022/01/07 02:15:09;;;;;;;12.60;5.25;;;2.60;99.90;;;;;;5113176;27;20031;-78
2022/01/07 02:17:34;;;;;;;14.25;6.32;;;2.50;99.90;;;;;;5101329;27;20050;-76
2022/01/07 02:20:00;;;;;;;10.57;5.57;;;2.60;99.90;;;;;;5111225;27;20039;-75
2022/01/07 02:22:25;;;;;;;14.82;6.25;;;2.60;99.90;;;;;;5105994;27;20038;-78
2022/01/07 02:24:52;;;;;;;14.80;5.93;;;2.60;99.90;;;;;;5107185;27;20054;-77
2022/01/07 02:27:19;;;;;;;10.98;5.47;;;2.60;99.90;;;;;;5121142;27;20046;-76
2022/01/07 02:29:47;;;;;;;9.50;5.55;;;2.60;99.90;;;;;;5134185;27;20118;-78
2022/01/07 02:32:13;;;;;;;12.45;5.90;;;4.50;99.90;;;;;;5110428;27;20030;-79
2022/01/07 02:34:39;;;;;;;14.82;6.68;;;2.60;99.90;;;;;;5106328;27;20087;-78
2022/01/07 02:37:08;;;;;;;9.20;6.25;;;2.50;99.90;;;;;;5102276;27;20190;-79
2022/01/07 02:39:34;;;;;;;10.57;5.07;;;2.50;99.90;;;;;;5127842;27;20590;-78
2022/01/07 02:42:00;;;;;;;11.63;5.43;;;2.50;99.90;;;;;;5102715;27;20088;-77
2022/01/07 02:44:26;;;;;;;14.32;6.18;;;2.60;99.90;;;;;;5114605;27;20111;-78
2022/01/07 02:46:52;;;;;;;11.00;5.10;;;2.60;99.90;;;;;;5109762;27;20471;-77
2022/01/07 02:49:19;;;;;;;9.25;5.05;;;2.50;99.90;;;;;;5124336;27;20035;-76
2022/01/07 02:51:46;;;;;;;11.82;5.10;;;2.40;99.90;;;;;;5108621;27;20043;-78
2022/01/07 02:54:12;;;;;;;11.73;5.68;;;2.50;99.90;;;;;;5110666;27;20096;-77
2022/01/07 02:56:39;;;;;;;8.95;6.35;;;2.40;99.90;;;;;;5107875;27;20439;-79
2022/01/07 02:59:06;;;;;;;7.68;6.00;;;2.60;99.90;;;;;;5108528;27;20039;-77
2022/01/07 03:01:33;;;;;;;11.68;5.63;;;2.50;99.90;;;;;;5100745;27;20031;-77
2022/01/07 03:03:58;;;;;;;12.02;5.88;;;2.40;99.90;;;;;;5126305;27;20517;-77
2022/01/07 03:06:24;;;;;;;10.30;5.70;;;4.50;99.90;;;;;;5113039;27;20056;-75
2022/01/07 03:08:51;;;;;;;10.57;6.80;;;2.50;99.90;;;;;;5132556;27;20049;-76
2022/01/07 03:11:17;;;;;;;8.38;5.70;;;2.50;99.90;;;;;;5133667;27;20043;-77
2022/01/07 03:13:43;;;;;;;10.68;4.60;;;3.00;99.90;;;;;;5109927;27;20042;-76
2022/01/07 03:16:08;;;;;;;9.25;5.50;;;2.60;99.90;;;;;;5121325;27;20046;-78
2022/01/07 03:18:34;;;;;;;14.60;6.25;;;2.60;99.90;;;;;;5108103;27;20043;-78
2022/01/07 03:21:00;;;;;;;9.65;6.28;;;2.50;99.90;;;;;;5105806;27;20047;-76
2022/01/07 03:23:26;;;;;;;12.07;5.90;;;2.60;99.90;;;;;;5146279;27;20031;-76
2022/01/07 03:25:53;;;;;;;10.07;6.20;;;2.30;99.90;;;;;;5123307;27;20444;-77
2022/01/07 03:28:18;;;;;;;7.30;6.45;;;2.80;99.90;;;;;;5119458;27;20091;-76
2022/01/07 03:30:44;;;;;;;15.45;6.35;;;2.40;99.90;;;;;;5127427;27;20042;-77
2022/01/07 03:33:10;;;;;;;11.25;6.72;;;3.10;99.90;;;;;;5122884;27;20084;-78
2022/01/07 03:35:36;;;;;;;7.38;5.75;;;2.50;99.90;;;;;;5105697;27;20509;-76
2022/01/07 03:38:02;;;;;;;9.10;6.18;;;2.50;99.90;;;;;;5126175;27;20031;-77
2022/01/07 03:40:28;;;;;;;13.30;7.00;;;2.60;99.90;;;;;;5120744;27;20100;-79
2022/01/07 03:42:54;;;;;;;10.85;5.97;;;2.50;99.90;;;;;;5124526;27;20051;-77
2022/01/07 03:45:20;;;;;;;10.32;6.80;;;3.20;99.90;;;;;;5109054;27;20038;-75
2022/01/07 03:47:47;;;;;;;12.38;7.55;;;2.60;99.90;;;;;;5123569;27;20045;-78
2022/01/07 03:50:15;;;;;;;13.73;7.90;;;2.60;99.90;;;;;;5108663;27;20047;-79
2022/01/07 03:52:41;;;;;;;9.18;6.20;;;3.30;99.90;;;;;;5127183;27;20086;-78
2022/01/07 03:55:11;;;;;;;9.73;6.68;;;2.60;99.90;;;;;;5113047;27;20116;-79
2022/01/07 03:57:37;;;;;;;15.07;7.32;;;2.60;99.90;;;;;;5140094;27;20035;-79
2022/01/07 04:00:07;;;;;;;10.13;6.75;;;2.60;99.90;;;;;;5126036;27;20046;-80
2022/01/07 04:02:33;;;;;;;9.88;7.57;;;2.60;99.90;;;;;;5119522;27;20114;-79
2022/01/07 04:04:58;;;;;;;11.35;6.72;;;2.60;99.90;;;;;;5142977;27;20126;-79
2022/01/07 04:07:24;;;;;;;11.70;7.50;;;2.60;99.90;;;;;;5121637;27;20023;-78
2022/01/07 04:09:50;;;;;;;9.52;6.68;;;2.60;99.90;;;;;;5142116;27;20062;-77
2022/01/07 04:12:15;;;;;;;13.07;6.70;;;2.60;99.90;;;;;;5121384;27;20039;-79
2022/01/07 04:14:41;;;;;;;11.35;6.45;;;2.60;99.90;;;;;;5127372;27;20043;-79
2022/01/07 04:17:07;;;;;;;16.73;8.55;;;2.60;99.90;;;;;;5102107;27;20401;-79
2022/01/07 04:19:33;;;;;;;6.85;6.07;;;2.90;99.90;;;;;;5128986;27;20160;-79
2022/01/07 04:22:00;;;;;;;8.95;6.47;;;2.60;99.90;;;;;;5121036;27;20046;-79
2022/01/07 04:24:25;;;;;;;8.38;6.18;;;2.60;99.90;;;;;;5116398;27;20493;-79
2022/01/07 04:26:51;;;;;;;7.82;6.45;;;2.50;99.90;;;;;;5108105;27;20046;-79
2022/01/07 04:29:17;;;;;;;7.68;6.28;;;2.60;99.90;;;;;;5109281;27;20106;-81
2022/01/07 04:31:43;;;;;;;8.02;6.05;;;2.80;99.90;;;;;;5108896;27;20038;-81
2022/01/07 04:34:08;;;;;;;7.03;6.13;;;3.70;99.90;;;;;;5117795;27;20046;-81
2022/01/07 04:36:34;;;;;;;8.38;6.22;;;2.60;99.90;;;;;;5108781;27;20042;-80
2022/01/07 04:38:59;;;;;;;8.73;7.25;;;3.60;99.90;;;;;;5106193;27;20096;-76
2022/01/07 04:41:25;;;;;;;14.05;7.10;;;2.60;99.90;;;;;;5105565;28;20035;-77
2022/01/07 04:43:51;;;;;;;6.97;5.82;;;2.60;99.90;;;;;;5123358;27;20130;-77
2022/01/07 04:46:16;;;;;;;8.85;6.78;;;4.00;99.90;;;;;;5108709;27;20031;-79
2022/01/07 04:48:42;;;;;;;9.73;7.57;;;2.60;99.90;;;;;;5125794;27;20047;-79
2022/01/07 04:51:07;;;;;;;11.35;7.28;;;2.70;99.90;;;;;;5105858;27;20051;-78
2022/01/07 04:53:33;;;;;;;8.60;7.03;;;2.70;99.90;;;;;;5122100;28;20133;-77
2022/01/07 04:55:59;;;;;;;12.15;7.13;;;2.70;99.90;;;;;;5106957;27;20043;-77
2022/01/07 04:58:26;;;;;;;8.00;6.72;;;2.60;99.90;;;;;;5108999;27;20035;-77
2022/01/07 05:00:51;;;;;;;12.55;6.68;;;2.70;99.90;;;;;;5107681;27;20039;-77
2022/01/07 05:03:17;;;;;;;7.18;6.47;;;2.60;99.90;;;;;;5126582;27;20459;-78
2022/01/07 05:05:47;;;;;;;10.77;6.47;;;2.70;99.90;;;;;;5109958;27;20121;-76
2022/01/07 05:08:15;;;;;;;10.73;7.25;;;2.60;99.90;;;;;;5116755;27;20085;-77
2022/01/07 05:10:42;;;;;;;9.02;5.93;;;2.70;99.90;;;;;;5109501;27;20050;-76
2022/01/07 05:13:08;;;;;;;9.30;7.10;;;3.10;99.90;;;;;;5112382;27;20049;-77
2022/01/07 05:15:35;;;;;;;8.82;6.70;;;2.70;99.90;;;;;;5112419;27;20054;-78
2022/01/07 05:18:02;;;;;;;11.02;7.65;;;2.80;99.90;;;;;;5127281;27;20038;-79
2022/01/07 05:20:27;;;;;;;10.50;7.10;;;2.80;99.90;;;;;;5109878;27;20047;-77
2022/01/07 05:22:53;;;;;;;10.98;6.85;;;2.70;99.90;;;;;;5116752;27;20051;-75
2022/01/07 05:25:20;;;;;;;9.07;7.15;;;2.80;99.90;;;;;;5126105;27;20483;-79
2022/01/07 05:27:46;;;;;;;6.70;6.07;;;4.80;99.90;;;;;;5108081;27;20046;-76
2022/01/07 05:30:13;;;;;;;7.95;6.40;;;2.80;99.90;;;;;;5123621;27;20043;-76
2022/01/07 05:32:39;;;;;;;8.95;6.13;;;2.80;99.90;;;;;;5108025;27;20039;-78
2022/01/07 05:35:06;;;;;;;8.35;6.72;;;2.70;99.90;;;;;;5125707;27;20050;-75
2022/01/07 05:37:32;;;;;;;10.40;6.10;;;2.90;99.90;;;;;;5106102;27;20393;-76
2022/01/07 05:39:58;;;;;;;8.73;6.70;;;2.80;99.90;;;;;;5127262;27;20481;-76
2022/01/07 05:42:25;;;;;;;11.25;6.32;;;2.80;99.90;;;;;;5111825;27;20035;-76
2022/01/07 05:44:51;;;;;;;10.43;7.50;;;2.90;99.90;;;;;;5128427;27;20089;-75
2022/01/07 05:47:17;;;;;;;10.05;7.43;;;2.90;99.90;;;;;;5128851;27;20078;-78
2022/01/07 05:49:42;;;;;;;12.68;7.43;;;4.90;99.90;;;;;;5116891;27;20383;-77
2022/01/07 05:52:08;;;;;;;11.63;6.40;;;2.90;99.90;;;;;;5134203;27;20049;-76
2022/01/07 05:54:34;;;;;;;14.98;8.18;;;2.90;99.90;;;;;;5127074;27;20031;-79
2022/01/07 05:57:00;;;;;;;7.88;7.00;;;2.70;99.90;;;;;;5124202;27;20363;-79
2022/01/07 05:59:25;;;;;;;7.50;6.53;;;2.90;99.90;;;;;;5125788;27;20027;-79
2022/01/07 06:01:51;;;;;;;13.50;7.75;;;3.00;99.90;;;;;;5125854;27;20498;-78
2022/01/07 06:04:16;;;;;;;10.52;6.40;;;3.30;99.90;;;;;;5103110;27;20035;-80
2022/01/07 06:06:42;;;;;;;10.77;7.07;;;2.90;99.90;;;;;;5120766;27;20042;-79
2022/01/07 06:09:08;;;;;;;13.98;7.55;;;2.90;99.90;;;;;;5133878;27;20047;-79
2022/01/07 06:11:33;;;;;;;10.05;6.97;;;2.90;99.90;;;;;;5107932;27;20042;-80
2022/01/07 06:13:59;;;;;;;8.20;6.72;;;2.90;99.90;;;;;;5126582;27;20439;-78
2022/01/07 06:16:25;;;;;;;7.85;6.80;;;2.90;99.90;;;;;;5118686;27;20439;-79
2022/01/07 06:18:59;;;;;;;7.38;6.63;;;5.10;99.90;;;;;;5136162;27;20062;-78
2022/01/07 06:21:26;;;;;;;13.27;7.05;;;3.00;99.90;;;;;;5146174;27;20403;-79
2022/01/07 06:23:52;;;;;;;11.68;6.65;;;3.00;99.90;;;;;;5113607;27;20049;-79
2022/01/07 06:26:18;;;;;;;10.43;7.10;;;3.00;99.90;;;;;;5116914;27;20050;-76
2022/01/07 06:28:44;;;;;;;8.15;6.18;;;3.00;99.90;;;;;;5108112;27;20140;-79
2022/01/07 06:31:10;;;;;;;9.85;6.03;;;3.00;99.90;;;;;;5145299;27;20122;-77
2022/01/07 06:33:35;;;;;;;8.75;6.05;;;3.00;99.90;;;;;;5147130;27;20035;-77
2022/01/07 06:36:01;;;;;;;8.93;5.90;;;3.00;99.90;;;;;;5126792;27;20062;-79
2022/01/07 06:38:26;;;;;;;8.52;7.18;;;3.00;99.90;;;;;;5121987;27;20121;-79
2022/01/07 06:40:52;;;;;;;8.97;5.40;;;3.00;99.90;;;;;;4418826;27;10000620;-81
2022/01/07 06:43:18;;;;;;;8.18;7.38;;;3.00;99.90;;;;;;5107681;27;20510;-79
2022/01/07 06:45:43;;;;;;;7.10;6.40;;;3.00;99.90;;;;;;5122960;27;20486;-80
2022/01/07 06:48:09;;;;;;;9.23;6.72;;;3.00;99.90;;;;;;5107289;27;20158;-80
2022/01/07 06:50:34;;;;;;;11.07;8.27;;;3.00;99.90;;;;;;5127574;27;20402;-80
2022/01/07 06:53:00;;;;;;;8.63;7.20;;;3.10;99.90;;;;;;5122037;27;20047;-79
2022/01/07 06:55:26;;;;;;;9.05;7.32;;;3.10;99.90;;;;;;5125367;27;20030;-81
2022/01/07 06:57:51;;;;;;;8.82;7.22;;;3.30;99.90;;;;;;5125720;27;20072;-78
2022/01/07 07:00:17;;;;;;;12.85;8.38;;;3.00;99.90;;;;;;5104939;27;20456;-78
2022/01/07 07:02:43;;;;;;;7.25;6.55;;;3.00;99.90;;;;;;5105322;27;20063;-77
2022/01/07 07:05:09;;;;;;;9.38;7.30;;;3.00;99.90;;;;;;5106698;27;20043;-78
2022/01/07 07:07:34;;;;;;;9.95;8.05;;;1.80;99.90;;;;;;5124205;27;20432;-77
2022/01/07 07:10:01;;;;;;;9.30;8.05;;;3.00;99.90;;;;;;5107318;27;20034;-76
2022/01/07 07:12:26;;;;;;;12.73;8.25;;;3.00;99.90;;;;;;5122055;27;20031;-76
2022/01/07 07:14:52;;;;;;;14.32;8.68;;;3.10;99.90;;;;;;5121149;27;20053;-76
2022/01/07 07:17:18;;;;;;;10.73;9.07;;;3.30;99.90;;;;;;5107961;27;20030;-75
2022/01/07 07:19:43;;;;;;;9.60;8.60;;;3.10;99.90;;;;;;5125719;27;20053;-78
2022/01/07 07:22:09;;;;;;;10.13;8.48;;;3.10;99.90;;;;;;5103908;27;20183;-77
2022/01/07 07:24:34;;;;;;;13.25;9.18;;;3.20;99.90;;;;;;5104826;27;20047;-80
2022/01/07 07:27:00;;;;;;;15.35;9.45;;;3.10;99.90;;;;;;5120957;27;20047;-76
2022/01/07 07:29:26;;;;;;;37.00;25.15;;;3.10;99.90;;;;;;5123877;27;20054;-78
2022/01/07 07:31:55;;;;;;;46.05;32.25;;;5.20;99.90;;;;;;5119432;27;20059;-80
2022/01/07 07:37:05;;;;;;;11.65;9.15;;;3.30;99.90;;;;;;5123050;27;20080;-77
2022/01/07 07:39:30;;;;;;;13.65;10.20;;;3.30;99.90;;;;;;5097591;27;20073;-76
2022/01/07 07:41:56;;;;;;;13.70;10.35;;;3.40;99.90;;;;;;5120344;27;20042;-78
2022/01/07 07:44:22;;;;;;;12.30;10.85;;;3.40;99.90;;;;;;5100190;27;20042;-76
2022/01/07 07:46:47;;;;;;;13.60;10.85;;;3.20;99.90;;;;;;5121216;27;20107;-79
2022/01/07 07:49:14;;;;;;;16.17;10.27;;;3.20;99.90;;;;;;5122632;27;20478;-77
2022/01/07 07:51:39;;;;;;;14.50;10.57;;;3.40;99.90;;;;;;5107192;27;20058;-77
2022/01/07 07:54:05;;;;;;;18.83;10.43;;;3.40;99.90;;;;;;5147602;27;20039;-76
2022/01/07 07:56:31;;;;;;;13.32;9.95;;;3.50;99.90;;;;;;5143321;27;20053;-79
2022/01/07 07:58:58;;;;;;;17.63;10.20;;;5.60;99.90;;;;;;5125083;27;20043;-76
2022/01/07 08:01:24;;;;;;;17.60;11.45;;;3.60;99.90;;;;;;5131952;27;20398;-79
2022/01/07 08:03:50;;;;;;;22.10;15.93;;;3.50;99.90;;;;;;5122107;27;20477;-78
2022/01/07 08:06:16;;;;;;;15.02;11.70;;;3.60;99.90;;;;;;5111250;27;20077;-81
2022/01/07 08:08:42;;;;;;;15.20;10.70;;;3.40;99.90;;;;;;5105897;27;20051;-79
2022/01/07 08:11:10;;;;;;;16.80;11.45;;;3.60;99.90;;;;;;5124203;27;20043;-80
2022/01/07 08:16:23;;;;;;;18.33;11.70;;;3.50;99.90;;;;;;5119340;27;20050;-80
2022/01/07 08:18:50;;;;;;;19.58;11.35;;;4.10;99.90;;;;;;5126917;27;20039;-80
2022/01/07 08:21:17;;;;;;;22.08;12.30;;;3.70;99.90;;;;;;5119155;27;20043;-80
2022/01/07 08:23:44;;;;;;;18.52;11.88;;;3.60;99.90;;;;;;5126538;27;20042;-80
2022/01/07 08:26:12;;;;;;;24.50;12.70;;;3.60;99.90;;;;;;5125192;27;20368;-79
2022/01/07 08:28:43;;;;;;;17.77;12.68;;;3.50;99.90;;;;;;5126704;27;20055;-79
2022/01/07 08:36:22;;;;;;;24.02;13.35;;;3.80;99.90;;;;;;5125281;27;20172;-81
2022/01/07 08:38:49;;;;;;;16.55;12.63;;;3.80;99.90;;;;;;5125657;27;20086;-79
2022/01/07 08:41:16;;;;;;;20.00;12.63;;;3.80;99.90;;;;;;5124785;27;20057;-78
2022/01/07 08:43:42;;;;;;;22.15;13.20;;;3.80;99.90;;;;;;5122777;28;20051;-80
2022/01/07 08:46:08;;;;;;;23.60;13.38;;;3.80;99.90;;;;;;5112503;27;20482;-79
2022/01/07 08:48:35;;;;;;;24.52;13.43;;;3.70;99.90;;;;;;5122604;28;20043;-77
2022/01/07 08:51:01;;;;;;;21.88;13.15;;;3.80;99.90;;;;;;5105005;28;20075;-80
2022/01/07 08:53:27;;;;;;;26.05;13.95;;;4.40;99.90;;;;;;5125170;27;20030;-81
2022/01/07 08:55:53;;;;;;;27.08;14.60;;;3.90;99.90;;;;;;5125602;27;20555;-81
2022/01/07 08:58:18;;;;;;;19.92;12.93;;;4.40;99.90;;;;;;5123186;27;20038;-79
2022/01/07 09:00:44;;;;;;;17.88;14.00;;;4.60;99.90;;;;;;5122589;28;20362;-80
2022/01/07 09:03:09;;;;;;;26.90;14.40;;;3.90;99.90;;;;;;5106222;27;20035;-80
2022/01/07 09:05:35;;;;;;;21.30;14.40;;;4.00;99.90;;;;;;5108414;27;20153;-80
2022/01/07 09:08:01;;;;;;;26.88;14.80;;;4.00;99.90;;;;;;5107857;27;20038;-79
2022/01/07 09:10:27;;;;;;;21.83;14.73;;;3.90;99.90;;;;;;5119805;27;20050;-79
2022/01/07 09:12:53;;;;;;;22.15;14.32;;;4.00;99.90;;;;;;5104179;27;20030;-82
2022/01/07 09:15:19;;;;;;;24.40;15.50;;;4.10;99.90;;;;;;5121161;27;20085;-81
2022/01/07 09:17:45;;;;;;;24.88;14.52;;;6.20;99.90;;;;;;5107488;27;20031;-81
2022/01/07 09:20:11;;;;;;;26.13;15.48;;;4.20;99.90;;;;;;5119544;27;20074;-80
2022/01/07 09:22:38;;;;;;;22.77;14.85;;;4.20;99.90;;;;;;5107631;27;20109;-80
2022/01/07 09:25:05;;;;;;;25.33;14.63;;;4.20;99.90;;;;;;5121325;28;20062;-78
2022/01/07 09:27:32;;;;;;;26.05;15.57;;;4.30;99.90;;;;;;5141900;27;20039;-78
2022/01/07 09:29:58;;;;;;;30.90;15.50;;;4.30;99.90;;;;;;5105112;28;20051;-78
2022/01/07 09:32:24;;;;;;;21.17;14.90;;;4.30;99.90;;;;;;5113434;27;20466;-77
2022/01/07 09:34:49;;;;;;;25.98;13.88;;;5.50;99.90;;;;;;5121568;28;20039;-78
2022/01/07 09:37:15;;;;;;;27.52;16.63;;;4.30;99.90;;;;;;5098171;28;20052;-78
2022/01/07 09:39:41;;;;;;;21.17;14.10;;;4.30;99.90;;;;;;5122058;28;20055;-79
2022/01/07 09:42:07;;;;;;;25.65;14.82;;;4.30;99.90;;;;;;5104113;28;20039;-78
2022/01/07 09:44:51;;;;;;;29.30;14.20;;;4.30;99.90;;;;;;5130710;27;20039;-75
2022/01/07 09:47:17;;;;;;;26.17;13.50;;;4.30;99.90;;;;;;5123043;27;20044;-79
2022/01/07 09:49:43;;;;;;;24.52;12.48;;;4.40;99.90;;;;;;5127585;27;20478;-77
2022/01/07 09:52:09;;;;;;;23.38;11.20;;;4.30;99.90;;;;;;5129242;27;20049;-73
2022/01/07 09:54:38;;;;;;;18.15;10.63;;;4.30;99.90;;;;;;5108367;27;20071;-79
2022/01/07 09:57:06;;;;;;;19.67;11.55;;;4.40;99.90;;;;;;5110793;27;20441;-78
2022/01/07 09:59:35;;;;;;;12.63;9.68;;;4.50;99.90;;;;;;5127478;27;20045;-81
2022/01/07 10:02:02;;;;;;;16.50;8.40;;;4.40;99.90;;;;;;5129301;27;20042;-81
2022/01/07 10:04:40;;;;;;;8.82;6.05;;;4.40;99.90;;;;;;5126978;27;20450;-81
2022/01/07 10:07:24;;;;;;;6.82;3.90;;;4.30;99.90;;;;;;5111759;27;20470;-79
2022/01/07 10:10:13;;;;;;;7.70;2.92;;;4.30;99.90;;;;;;5121644;27;20048;-80
2022/01/07 10:13:00;;;;;;;6.20;3.80;;;4.30;99.90;;;;;;5104120;27;20034;-85
2022/01/07 10:15:31;;;;;;;4.90;3.70;;;4.20;99.90;;;;;;5127272;27;20079;-80
2022/01/07 10:18:00;;;;;;;8.30;5.93;;;4.10;99.90;;;;;;5109262;27;20031;-81
2022/01/07 10:20:30;;;;;;;5.45;3.72;;;4.10;99.90;;;;;;5145555;27;20083;-82
2022/01/07 10:23:02;;;;;;;3.28;2.97;;;4.50;99.90;;;;;;5124582;27;20123;-81
2022/01/07 10:25:31;;;;;;;4.22;2.95;;;5.60;99.90;;;;;;5613301;22;20471;-84
2022/01/07 10:28:01;;;;;;;4.47;3.30;;;4.10;99.90;;;;;;5022002;28;20041;-84
2022/01/07 10:30:39;;;;;;;4.78;2.88;;;3.40;99.90;;;;;;5020519;28;20149;-85
2022/01/07 10:33:41;;;;;;;4.22;2.92;;;5.30;99.90;;;;;;5025046;28;20041;-87
2022/01/07 10:36:06;;;;;;;5.15;2.20;;;4.10;99.90;;;;;;5023487;28;20500;-84
2022/01/07 10:38:34;;;;;;;6.47;2.08;;;4.00;99.90;;;;;;5021495;28;20053;-84
2022/01/07 10:41:00;;;;;;;3.08;1.40;;;4.00;99.90;;;;;;5004318;28;20394;-87
2022/01/07 10:43:31;;;;;;;6.00;1.58;;;3.70;99.90;;;;;;5006269;28;20038;-85
2022/01/07 10:46:07;;;;;;;2.72;0.90;;;3.90;99.90;;;;;;5018925;28;20057;-85
2022/01/07 10:48:56;;;;;;;2.88;1.08;;;4.30;99.90;;;;;;5016428;28;20046;-86
2022/01/07 10:51:26;;;;;;;2.00;1.00;;;4.20;99.90;;;;;;5021507;28;20492;-87
2022/01/07 10:53:58;;;;;;;4.88;1.17;;;4.20;99.90;;;;;;5006054;28;20446;-83
2022/01/07 10:56:47;;;;;;;2.25;0.68;;;5.60;99.90;;;;;;5013973;28;20386;-88
2022/01/07 10:59:20;;;;;;;5.70;0.80;;;3.80;99.90;;;;;;5026574;28;20559;-85
2022/01/07 11:01:48;;;;;;;5.60;1.40;;;4.10;99.90;;;;;;5021736;28;20052;-88
2022/01/07 11:04:20;;;;;;;5.03;1.40;;;4.00;99.90;;;;;;5021784;28;20046;-91
2022/01/07 11:06:47;;;;;;;5.05;1.58;;;4.00;99.90;;;;;;5016959;28;20037;-85
2022/01/07 11:09:31;;;;;;;3.45;1.25;;;4.20;99.90;;;;;;5011342;28;20045;-90
2022/01/07 11:12:01;;;;;;;5.60;1.73;;;4.10;99.90;;;;;;5010532;28;20048;-91
2022/01/07 11:14:29;;;;;;;6.97;1.85;;;7.50;99.90;;;;;;5021093;28;20061;-85
2022/01/07 11:16:58;;;;;;;6.57;2.85;;;3.50;99.90;;;;;;4995489;28;20058;-84
2022/01/07 11:19:35;;;;;;;9.13;4.32;;;3.00;99.90;;;;;;5026863;28;20080;-85
2022/01/07 11:22:03;;;;;;;11.80;3.97;;;3.90;99.90;;;;;;5005910;28;20059;-91
2022/01/07 11:24:35;;;;;;;9.55;4.97;;;4.10;99.90;;;;;;5023115;28;20030;-86
2022/01/07 11:27:20;;;;;;;10.43;4.45;;;4.20;99.90;;;;;;5019487;28;20081;-86
2022/01/07 11:30:04;;;;;;;;;;;4.30;99.90;;;;;;4999243;28;20045;-91
2022/01/07 11:32:33;;;;;;;6.82;4.50;;;4.30;99.90;;;;;;5016546;28;19928;-88
2022/01/07 11:35:45;;;;;;;14.15;6.38;;;4.30;99.90;;;;;;5029536;28;20397;-91
2022/01/07 11:38:43;;;;;;;13.65;6.80;;;4.40;99.90;;;;;;4965044;28;20053;-89
2022/01/07 11:41:14;;;;;;;14.88;5.93;;;3.80;99.90;;;;;;5010480;28;20038;-89
2022/01/07 11:43:45;;;;;;;12.88;5.50;;;2.70;99.90;;;;;;5010980;28;20053;-87
2022/01/07 11:46:24;;;;;;;16.50;6.18;;;6.00;99.90;;;;;;5012731;28;20061;-84
2022/01/07 11:48:50;;;;;;;13.80;6.45;;;3.80;99.90;;;;;;5040513;28;20128;-87
2022/01/07 11:51:17;;;;;;;18.52;7.07;;;5.10;99.90;;;;;;5021376;28;20041;-91
2022/01/07 11:53:51;;;;;;;14.68;6.53;;;4.80;99.90;;;;;;5037018;28;20099;-86
2022/01/07 11:56:24;;;;;;;17.38;7.75;;;4.70;99.90;;;;;;5025418;28;20046;-86
2022/01/07 11:58:56;;;;;;;13.57;6.82;;;3.40;99.90;;;;;;5026784;28;20041;-87
2022/01/07 12:01:30;;;;;;;11.40;6.38;;;3.80;99.90;;;;;;5025161;28;20515;-85
2022/01/07 12:04:00;;;;;;;15.70;6.95;;;4.80;99.90;;;;;;5019724;28;20100;-86
2022/01/07 12:06:27;;;;;;;15.93;6.90;;;;;;;;;;4986423;28;20156;-88
2022/01/07 12:08:56;;;;;;;15.18;7.32;;;4.80;99.90;;;;;;5027617;28;20190;-86
2022/01/07 12:11:23;;;;;;;20.50;7.68;;;4.00;99.90;;;;;;5018984;28;20045;-85
2022/01/07 12:13:49;;;;;;;15.52;7.80;;;5.20;99.90;;;;;;4989179;28;20041;-87
2022/01/07 12:16:25;;;;;;;16.88;7.45;;;4.40;99.90;;;;;;5018429;28;20049;-86
2022/01/07 12:18:51;;;;;;;17.52;6.88;;;;;;;;;;5028629;28;20045;-86
2022/01/07 12:21:17;;;;;;;12.88;6.72;;;4.70;99.90;;;;;;5022635;28;20121;-86
2022/01/07 12:23:43;;;;;;;13.15;6.15;;;3.80;99.90;;;;;;5018745;28;20111;-84
2022/01/07 12:26:10;;;;;;;14.43;6.55;;;4.00;99.90;;;;;;5017450;28;20054;-87
2022/01/07 12:28:45;;;;;;;11.85;4.30;;;3.90;99.90;;;;;;5002662;28;20436;-86
2022/01/07 12:31:13;;;;;;;7.05;3.63;;;3.20;99.90;;;;;;5022070;28;20048;-84
2022/01/07 12:33:53;;;;;;;10.63;4.30;;;6.10;99.90;;;;;;5004529;28;20052;-87
2022/01/07 12:36:50;;;;;;;8.80;3.22;;;4.80;99.90;;;;;;5002331;28;20046;-85
2022/01/07 12:39:26;;;;;;;15.35;7.45;;;4.80;99.90;;;;;;5018016;28;20081;-87
2022/01/07 12:41:54;;;;;;;7.82;4.57;;;5.80;99.90;;;;;;5006690;28;20136;-86
2022/01/07 12:44:23;;;;;;;14.68;4.63;;;6.30;99.90;;;;;;5025342;28;20507;-88
2022/01/07 12:46:56;;;;;;;19.63;5.28;;;4.70;99.90;;;;;;5019192;28;20041;-85
2022/01/07 12:49:32;;;;;;;46.75;6.82;;;4.70;99.90;;;;;;5025467;28;20053;-86
2022/01/07 12:52:03;;;;;;;18.15;4.63;;;5.40;99.90;;;;;;5019326;28;20049;-88
2022/01/07 12:54:29;;;;;;;16.45;5.22;;;4.90;99.90;;;;;;5025327;28;20076;-85
2022/01/07 12:56:55;;;;;;;45.50;4.50;;;5.00;99.90;;;;;;5019109;28;20092;-86
2022/01/07 12:59:23;;;;;;;10.75;3.38;;;4.90;99.90;;;;;;5035149;28;20049;-84
2022/01/07 13:01:49;;;;;;;11.05;2.67;;;5.00;99.90;;;;;;5010085;28;20095;-84
2022/01/07 13:04:21;;;;;;;8.30;2.60;;;6.20;99.90;;;;;;5019041;28;20046;-83